Time;durP1;ratioP1;P1;durP2;ratioP2;P2;SDS_P1;SDS_P2;PMS_P1;PMS_P2;Temp;Humidity;BMP_temperature;BMP_pressure;BME280_temperature;BME280_humidity;BME280_pressure;Samples;Min_cycle;Max_cycle;Signal;HPM_P1;HPM_P2
2023/10/09 00:02:09;;;;;;;1.00;0.50;;;;;;;5.49;62.27;99392.48;105847;1254;59761;-75
2023/10/09 00:04:41;;;;;;;1.60;0.50;;;;;;;5.50;62.10;99396.41;105755;1256;59696;-76
2023/10/09 00:07:10;;;;;;;1.40;0.70;;;;;;;5.50;62.26;99403.21;105942;1254;73008;-74
2023/10/09 00:09:48;;;;;;;1.60;0.60;;;;;;;5.50;62.14;99403.58;105758;1257;70640;-76
2023/10/09 00:12:16;;;;;;;0.90;0.50;;;;;;;5.49;62.22;99404.05;106245;1259;72509;-75
2023/10/09 00:14:50;;;;;;;2.50;0.90;;;;;;;5.47;62.70;99407.34;106031;1254;59733;-76
2023/10/09 00:17:18;;;;;;;0.80;0.60;;;;;;;5.45;63.00;99410.63;106246;1256;59643;-72
2023/10/09 00:19:51;;;;;;;2.00;0.80;;;;;;;5.41;63.19;99409.20;107469;1254;71926;-74
2023/10/09 00:22:28;;;;;;;1.20;0.60;;;;;;;5.40;63.35;99413.71;108228;1254;68685;-75
2023/10/09 00:25:10;;;;;;;1.60;0.70;;;;;;;5.42;63.44;99418.80;106661;1254;72684;-76
2023/10/09 00:27:42;;;;;;;1.60;0.70;;;;;;;5.43;63.61;99424.15;105921;1254;60426;-74
2023/10/09 00:30:29;;;;;;;1.90;0.80;;;;;;;5.41;63.86;99426.94;106065;1253;60450;-74
2023/10/09 00:33:05;;;;;;;0.90;0.70;;;;;;;5.40;63.85;99428.63;105899;1254;73902;-76
2023/10/09 00:35:36;;;;;;;3.80;1.00;;;;;;;5.40;64.04;99436.32;105797;1254;70373;-75
2023/10/09 00:40:56;;;;;;;3.20;0.70;;;;;;;5.37;64.24;99440.11;105962;1256;60533;-76
2023/10/09 00:43:29;;;;;;;4.20;0.70;;;;;;;5.35;64.33;99442.04;105982;1253;60315;-77
2023/10/09 00:46:09;;;;;;;3.00;0.80;;;;;;;5.30;64.54;99443.69;106025;1256;72887;-77
2023/10/09 00:48:40;;;;;;;1.60;0.60;;;;;;;5.28;64.68;99442.36;106013;1254;70284;-75
2023/10/09 00:51:18;;;;;;;0.70;0.50;;;;;;;5.27;64.41;99449.66;105856;1254;72672;-76
2023/10/09 00:53:50;;;;;;;1.90;1.00;;;;;;;5.27;64.63;99449.48;105795;1256;60549;-77
2023/10/09 00:59:00;;;;;;;1.20;0.60;;;;;;;5.27;64.90;99457.51;105857;1254;73770;-77
2023/10/09 01:01:39;;;;;;;2.20;1.00;;;;;;;5.23;65.07;99456.98;106049;1256;69436;-77
2023/10/09 01:04:17;;;;;;;2.80;0.90;;;;;;;5.20;65.07;99461.48;105983;1254;72506;-78
2023/10/09 01:07:04;;;;;;;2.10;0.80;;;;;;;5.19;65.11;99464.79;106122;1257;60304;-76
2023/10/09 01:09:42;;;;;;;2.30;0.80;;;;;;;5.17;65.06;99464.65;106339;1256;60354;-78
2023/10/09 01:12:17;;;;;;;2.50;1.00;;;;;;;5.13;65.35;99479.16;106272;1256;71292;-77
2023/10/09 01:14:45;;;;;;;7.20;1.00;;;;;;;5.11;65.37;99478.84;106444;1254;70100;-78
2023/10/09 01:17:29;;;;;;;1.70;0.70;;;;;;;5.21;65.57;99472.64;106831;1254;71186;-77
2023/10/09 01:19:58;;;;;;;1.10;0.70;;;;;;;5.32;65.47;99473.91;108305;1252;60441;-76
2023/10/09 01:22:27;;;;;;;8.50;2.40;;;;;;;5.33;65.59;99478.23;108368;1252;60536;-78
2023/10/09 01:24:55;;;;;;;4.50;0.90;;;;;;;5.33;66.05;99486.72;106766;1256;74337;-77
2023/10/09 01:27:25;;;;;;;1.20;0.80;;;;;;;5.30;66.06;99486.60;106093;1259;68885;-78
2023/10/09 01:29:53;;;;;;;1.00;0.60;;;;;;;5.25;65.83;99494.80;105857;1255;71534;-77
2023/10/09 01:32:21;;;;;;;1.80;0.70;;;;;;;5.22;65.86;99497.02;105985;1254;60469;-77
2023/10/09 01:34:49;;;;;;;1.90;0.60;;;;;;;5.20;65.89;99498.74;105971;1254;60543;-78
2023/10/09 01:37:28;;;;;;;2.20;0.80;;;;;;;5.17;66.04;99495.48;106073;1254;72584;-76
2023/10/09 01:40:24;;;;;;;4.20;0.70;;;;;;;5.13;66.07;99496.58;105936;1254;70327;-76
2023/10/09 01:42:47;;;;;;;1.50;0.70;;;;;;;5.09;65.81;99497.23;105954;1253;72640;-77
2023/10/09 01:47:51;;;;;;;2.60;1.00;;;;;;;5.05;66.07;99506.58;106094;1257;60847;-76
2023/10/09 01:50:22;;;;;;;6.20;0.90;;;;;;;5.05;66.09;99506.98;105885;1253;72433;-76
2023/10/09 01:52:53;;;;;;;0.80;0.70;;;;;;;5.05;65.97;99511.02;105968;1254;70471;-78
2023/10/09 01:58:05;;;;;;;0.70;0.70;;;;;;;5.03;65.77;99516.81;106560;1253;60411;-77
2023/10/09 02:00:41;;;;;;;2.60;0.80;;;;;;;5.04;66.11;99516.38;106633;1257;60501;-77
2023/10/09 02:03:12;;;;;;;3.30;0.80;;;;;;;5.05;65.84;99522.05;106384;1252;72689;-77
2023/10/09 02:05:43;;;;;;;1.20;0.50;;;;;;;5.06;66.15;99528.61;106661;1253;68720;-78
2023/10/09 02:08:12;;;;;;;1.10;0.70;;;;;;;5.18;65.95;99530.86;105856;1254;71736;-75
2023/10/09 02:10:40;;;;;;;1.20;0.80;;;;;;;5.29;65.84;99533.05;105658;1256;60763;-76
2023/10/09 02:13:09;;;;;;;0.90;0.60;;;;;;;5.33;65.78;99539.17;105967;1259;60434;-76
2023/10/09 02:18:18;;;;;;;0.80;0.60;;;;;;;5.35;65.41;99536.44;106476;1254;70599;-77
2023/10/09 02:21:00;;;;;;;1.20;0.80;;;;;;;5.35;65.29;99546.73;107595;1254;72837;-76
2023/10/09 02:29:03;;;;;;;2.10;0.90;;;;;;;5.31;65.16;99557.27;105913;1254;72949;-78
2023/10/09 02:31:40;;;;;;;1.20;0.60;;;;;;;5.30;65.59;99560.70;105705;1254;69944;-74
2023/10/09 02:34:10;;;;;;;2.10;0.60;;;;;;;5.26;65.62;99559.62;106892;1253;71782;-78
2023/10/09 02:36:41;;;;;;;2.60;0.80;;;;;;;5.22;65.94;99564.43;106844;1254;60523;-78
2023/10/09 02:44:40;;;;;;;0.70;0.50;;;;;;;5.06;66.40;99578.26;105863;1256;69235;-76
2023/10/09 02:47:17;;;;;;;2.40;0.70;;;;;;;5.01;66.61;99574.70;105973;1255;70457;-75
2023/10/09 02:49:48;;;;;;;1.30;0.70;;;;;;;4.99;67.08;99575.74;105630;1259;61098;-76
2023/10/09 02:52:24;;;;;;;1.50;0.70;;;;;;;5.10;66.83;99580.71;106012;1256;60525;-77
2023/10/09 02:54:59;;;;;;;1.40;0.60;;;;;;;5.20;66.75;99578.48;105987;1254;74464;-76
2023/10/09 02:57:36;;;;;;;2.30;1.30;;;;;;;5.22;66.98;99580.34;105876;1256;68871;-77
2023/10/09 03:00:08;;;;;;;2.00;0.80;;;;;;;5.24;66.98;99580.92;105944;1255;72687;-77
2023/10/09 03:02:39;;;;;;;2.20;0.90;;;;;;;5.25;66.64;99584.87;105841;1254;60546;-77
2023/10/09 03:05:12;;;;;;;1.00;0.70;;;;;;;5.24;66.63;99581.27;105939;1253;60330;-75
2023/10/09 03:07:40;;;;;;;2.90;0.80;;;;;;;5.19;66.62;99584.01;105537;1254;73882;-75
2023/10/09 03:10:10;;;;;;;2.20;0.90;;;;;;;5.11;66.48;99582.60;105929;1258;69020;-76
2023/10/09 03:12:39;;;;;;;1.10;0.60;;;;;;;5.03;66.82;99592.41;105993;1256;71612;-76
2023/10/09 03:15:08;;;;;;;1.90;0.60;;;;;;;4.96;67.05;99593.05;105997;1259;60728;-77
2023/10/09 03:17:36;;;;;;;1.30;0.60;;;;;;;4.89;67.31;99600.17;105865;1254;60627;-76
2023/10/09 03:20:12;;;;;;;1.50;0.70;;;;;;;4.80;67.73;99605.20;108308;1253;72426;-76
2023/10/09 03:22:40;;;;;;;3.40;0.80;;;;;;;4.74;67.78;99613.60;108385;1253;69147;-75
2023/10/09 03:25:13;;;;;;;1.30;0.80;;;;;;;4.80;68.31;99609.92;106819;1253;71999;-77
2023/10/09 03:27:47;;;;;;;0.70;0.60;;;;;;;4.80;68.67;99608.98;105944;1254;60469;-77
2023/10/09 03:30:16;;;;;;;1.80;0.70;;;;;;;4.74;68.62;99610.08;106008;1254;60542;-77
2023/10/09 03:32:47;;;;;;;2.10;0.80;;;;;;;4.66;68.99;99610.24;106042;1257;73583;-77
2023/10/09 03:35:17;;;;;;;3.70;1.50;;;;;;;4.58;69.32;99611.33;105937;1254;70061;-78
2023/10/09 03:37:45;;;;;;;2.60;1.10;;;;;;;4.52;69.50;99616.52;105967;1253;71561;-79
2023/10/09 03:40:17;;;;;;;2.90;0.80;;;;;;;4.47;69.58;99622.25;106085;1257;60546;-78
2023/10/09 03:42:45;;;;;;;1.40;0.70;;;;;;;4.39;69.97;99621.52;105844;1254;60498;-78
2023/10/09 03:45:18;;;;;;;2.60;0.70;;;;;;;4.31;70.02;99618.71;105867;1253;73771;-78
2023/10/09 03:47:48;;;;;;;;;;;;;;;4.35;70.33;99624.83;106280;1257;68711;-77
2023/10/09 03:50:35;;;;;;;0.90;0.60;;;;;;;4.40;70.31;99629.27;106537;1254;73091;-78
2023/10/09 03:53:07;;;;;;;1.90;0.80;;;;;;;4.31;70.69;99629.92;106410;1254;60551;-78
2023/10/09 03:55:37;;;;;;;1.70;0.90;;;;;;;4.24;71.01;99631.93;105935;1254;60573;-76
2023/10/09 03:58:06;;;;;;;5.40;1.80;;;;;;;4.18;71.06;99633.80;105842;1254;73866;-76
2023/10/09 04:00:44;;;;;;;3.40;1.20;;;;;;;4.12;71.32;99636.41;105793;1258;69023;-77
2023/10/09 04:03:14;;;;;;;1.60;0.80;;;;;;;4.05;71.75;99638.23;105945;1254;71494;-78
2023/10/09 04:05:43;;;;;;;3.20;1.70;;;;;;;3.98;71.60;99642.17;105970;1256;60434;-76
2023/10/09 04:08:19;;;;;;;4.10;2.20;;;;;;;3.93;72.09;99648.30;106065;1256;60031;-77
2023/10/09 04:10:54;;;;;;;1.60;0.70;;;;;;;4.01;72.08;99653.66;106311;1254;72666;-77
2023/10/09 04:13:33;;;;;;;2.00;0.60;;;;;;;4.08;72.19;99649.75;106397;1254;69052;-78
2023/10/09 04:16:11;;;;;;;1.20;0.70;;;;;;;4.03;72.42;99653.62;107125;1253;72695;-76
2023/10/09 04:18:39;;;;;;;2.30;0.80;;;;;;;3.99;72.65;99655.41;107751;1254;59339;-74
2023/10/09 04:21:30;;;;;;;1.00;0.60;;;;;;;3.95;72.62;99650.66;107506;1256;60368;-75
2023/10/09 04:26:44;;;;;;;1.90;0.90;;;;;;;3.90;72.86;99656.11;107641;1254;70221;-78
2023/10/09 04:29:28;;;;;;;2.50;1.00;;;;;;;3.87;72.76;99654.42;108784;1254;71935;-77
2023/10/09 04:31:56;;;;;;;3.60;1.00;;;;;;;3.90;72.72;99656.84;106468;1257;60463;-78
2023/10/09 04:34:34;;;;;;;1.40;0.80;;;;;;;4.03;72.69;99659.63;106167;1259;60408;-77
2023/10/09 04:40:01;;;;;;;1.60;1.00;;;;;;;4.03;72.92;99668.16;105756;1256;69220;-76
2023/10/09 04:42:37;;;;;;;1.40;0.70;;;;;;;4.01;72.52;99675.04;106068;1257;72670;-76
2023/10/09 04:48:32;;;;;;;2.70;0.80;;;;;;;3.98;72.32;99685.58;106379;1254;60463;-79
2023/10/09 04:53:04;;;;;;;2.50;0.80;;;;;;;4.03;72.17;99691.85;106346;1258;68997;-77
2023/10/09 04:55:38;;;;;;;1.40;1.00;;;;;;;4.17;71.92;99695.58;106188;1254;70797;-78
2023/10/09 04:58:12;;;;;;;3.00;0.70;;;;;;;4.20;71.42;99701.33;105898;1254;60529;-80
2023/10/09 05:03:12;;;;;;;3.70;1.60;;;;;;;4.14;71.36;99708.23;106009;1253;72921;-79
2023/10/09 05:08:28;;;;;;;3.50;1.00;;;;;;;4.19;71.23;99721.23;106297;1254;71456;-80
2023/10/09 05:16:37;;;;;;;2.10;1.10;;;;;;;4.29;70.60;99726.11;105970;1255;72663;-80
2023/10/09 05:19:09;;;;;;;4.00;1.30;;;;;;;4.48;70.28;99729.11;106086;1256;68836;-80
2023/10/09 05:31:56;;;;;;;4.20;1.10;;;;;;;4.75;68.99;99733.84;106226;1254;70063;-79
2023/10/09 05:34:33;;;;;;;2.10;1.40;;;;;;;4.80;68.59;99735.91;106076;1256;72428;-78
2023/10/09 05:37:24;;;;;;;6.30;1.30;;;;;;;4.82;68.48;99742.19;106044;1256;60460;-79
2023/10/09 05:42:43;;;;;;;2.10;1.20;;;;;;;4.93;68.03;99750.05;107038;1256;71811;-78
2023/10/09 05:47:56;;;;;;;2.30;1.30;;;;;;;5.07;67.57;99749.23;106144;1256;70836;-78
2023/10/09 06:08:26;;;;;;;1.50;0.80;;;;;;;5.60;65.51;99764.80;106245;1257;75908;-80
2023/10/09 06:11:05;;;;;;;2.50;0.90;;;;;;;5.71;65.24;99769.12;107735;1251;70170;-78
2023/10/09 06:13:45;;;;;;;3.60;1.40;;;;;;;5.82;64.55;99771.98;107859;1255;71648;-78
2023/10/09 06:16:19;;;;;;;5.80;1.70;;;;;;;5.93;64.02;99773.61;106928;1253;60487;-77
2023/10/09 06:18:54;;;;;;;1.90;1.30;;;;;;;6.05;63.53;99778.41;106646;1256;60518;-79
2023/10/09 06:22:19;;;;;;;2.70;1.10;;;;;;;6.10;63.47;99777.38;106980;1254;72838;-79
2023/10/09 06:24:33;;;;;;;2.80;1.20;;;;;;;6.16;63.08;99777.58;106872;1256;68477;-78
2023/10/09 06:29:36;;;;;;;2.70;1.00;;;;;;;6.24;62.46;99785.30;108197;1253;60523;-79
2023/10/09 06:34:56;;;;;;;5.20;1.90;;;;;;;6.30;62.10;99790.57;106367;1259;73889;-80
2023/10/09 06:48:09;;;;;;;2.60;1.00;;;;;;;6.46;61.52;99798.60;106137;1255;73852;-81
2023/10/09 06:50:58;;;;;;;2.00;1.00;;;;;;;6.51;61.43;99799.16;106267;1254;70600;-80
2023/10/09 06:53:28;;;;;;;4.10;1.00;;;;;;;6.59;61.14;99806.08;106247;1260;75144;-81
2023/10/09 06:56:05;;;;;;;1.10;0.70;;;;;;;6.65;61.01;99807.07;106458;1253;60414;-79
2023/10/09 06:58:42;;;;;;;2.30;1.10;;;;;;;6.70;60.41;99803.13;106518;1255;60344;-81
2023/10/09 07:17:44;;;;;;;1.90;1.00;;;;;;;6.94;59.24;99804.77;106423;1257;71648;-80
2023/10/09 07:20:36;;;;;;;2.00;0.90;;;;;;;7.07;59.12;99802.30;106894;1254;72018;-79
2023/10/09 07:23:14;;;;;;;2.10;1.30;;;;;;;7.19;58.91;99811.94;108433;1254;60289;-81
2023/10/09 07:25:55;;;;;;;2.80;1.10;;;;;;;7.28;58.68;99818.34;108474;1254;62330;-80
2023/10/09 07:28:36;;;;;;;2.10;1.20;;;;;;;7.34;58.08;99819.48;108054;1258;72409;-81
2023/10/09 07:31:09;;;;;;;3.90;1.10;;;;;;;7.40;58.02;99823.32;107020;1254;70145;-80
2023/10/09 07:33:59;;;;;;;9.70;1.50;;;;;;;7.48;57.89;99832.30;106773;1260;71561;-80
2023/10/09 07:36:34;;;;;;;1.70;0.80;;;;;;;7.58;57.40;99836.30;106304;1257;60522;-80
2023/10/09 07:39:13;;;;;;;;;;;;;;;7.67;56.67;99837.63;106451;1257;60241;-80
2023/10/09 07:41:55;;;;;;;1.70;0.90;;;;;;;7.76;56.21;99835.28;106523;1258;72129;-80
2023/10/09 07:44:39;;;;;;;2.40;0.90;;;;;;;7.82;55.64;99833.05;106063;1260;69114;-80
2023/10/09 07:47:18;;;;;;;3.00;1.30;;;;;;;7.89;55.50;99832.42;106370;1257;72757;-80
2023/10/09 07:49:53;;;;;;;2.30;1.00;;;;;;;8.02;55.46;99834.46;106435;1259;59282;-80
2023/10/09 07:52:22;;;;;;;2.60;1.10;;;;;;;8.16;55.00;99834.39;106734;1256;59754;-80
2023/10/09 07:54:52;;;;;;;1.80;0.90;;;;;;;8.26;54.30;99838.70;106618;1257;73824;-80
2023/10/09 07:57:28;;;;;;;2.30;0.90;;;;;;;8.31;54.19;99837.35;106740;1254;69430;-80
2023/10/09 08:00:01;;;;;;;2.90;0.90;;;;;;;8.38;53.91;99838.77;106748;1257;72973;-80
2023/10/09 08:02:38;;;;;;;1.80;0.90;;;;;;;8.49;53.89;99838.94;106412;1255;60479;-80
2023/10/09 08:05:18;;;;;;;2.40;0.90;;;;;;;8.63;53.12;99843.59;106615;1254;60520;-80
2023/10/09 08:08:18;;;;;;;1.60;0.90;;;;;;;8.74;52.84;99835.87;106634;1254;73878;-80
2023/10/09 08:13:56;;;;;;;2.10;1.10;;;;;;;8.99;52.27;99830.21;107796;1254;71515;-80
2023/10/09 08:16:37;;;;;;;1.80;0.90;;;;;;;9.13;51.52;99823.27;109032;1254;60305;-80
2023/10/09 08:22:37;;;;;;;3.40;1.20;;;;;;;9.38;51.26;99824.53;108601;1254;73043;-81
2023/10/09 08:25:25;;;;;;;2.10;1.00;;;;;;;9.54;50.64;99831.80;109237;1254;68995;-81
2023/10/09 08:32:38;;;;;;;2.00;1.10;;;;;;;9.75;49.99;99840.27;103231;1292;600102;-81
2023/10/09 08:35:29;;;;;;;1.70;1.20;;;;;;;9.94;49.82;99839.93;105356;1270;59456;-81
2023/10/09 08:38:10;;;;;;;2.10;1.10;;;;;;;10.17;49.63;99836.44;105555;1270;59273;-81
2023/10/09 08:40:42;;;;;;;2.40;1.20;;;;;;;10.39;48.27;99837.63;105541;1268;71047;-81
2023/10/09 08:43:17;;;;;;;2.70;1.40;;;;;;;10.49;47.42;99837.98;105438;1270;70412;-80
2023/10/09 08:45:47;;;;;;;2.90;1.20;;;;;;;10.44;47.68;99839.37;105841;1261;235296;-81
2023/10/09 08:48:26;;;;;;;4.50;1.30;;;;;;;10.49;48.26;99831.77;106422;1258;59204;-82
2023/10/09 08:50:56;;;;;;;3.20;1.40;;;;;;;10.88;48.15;99833.77;106161;1256;61273;-82
2023/10/09 08:53:24;;;;;;;4.30;1.30;;;;;;;11.33;47.83;99833.73;106078;1265;71074;-81
2023/10/09 08:55:51;;;;;;;4.10;1.70;;;;;;;11.70;46.60;99838.88;106091;1256;70178;-82
2023/10/09 08:58:24;;;;;;;1.70;1.10;;;;;;;12.07;45.35;99840.63;107849;1254;71142;-82
2023/10/09 09:00:52;;;;;;;2.60;1.30;;;;;;;12.47;44.26;99838.27;108525;1254;59270;-83
2023/10/09 09:03:28;;;;;;;4.70;1.00;;;;;;;12.81;43.78;99842.19;107403;1258;59290;-83
2023/10/09 09:06:02;;;;;;;1.70;1.10;;;;;;;13.34;42.79;99841.25;108525;1254;72995;-83
2023/10/09 09:08:36;;;;;;;3.80;1.10;;;;;;;13.75;41.74;99841.13;106739;1254;70323;-83
2023/10/09 09:11:30;;;;;;;1.30;1.20;;;;;;;14.23;41.17;99838.91;106992;1259;71407;-81
2023/10/09 09:14:04;;;;;;;7.80;1.80;;;;;;;14.89;40.17;99844.06;106233;1255;60243;-82
2023/10/09 09:16:36;;;;;;;13.90;3.30;;;;;;;15.55;38.67;99837.59;108358;1258;60009;-81
2023/10/09 09:21:42;;;;;;;2.00;1.20;;;;;;;16.23;35.67;99835.92;107642;1254;69680;-82
2023/10/09 09:26:59;;;;;;;5.60;2.60;;;;;;;16.61;36.56;99833.77;107547;1256;59746;-76
2023/10/09 09:29:37;;;;;;;6.40;2.00;;;;;;;17.26;35.07;99831.98;106880;1254;59694;-78
2023/10/09 09:32:18;;;;;;;7.00;2.00;;;;;;;17.72;35.01;99833.79;105999;1257;71625;-79
2023/10/09 09:34:54;;;;;;;2.40;1.60;;;;;;;18.38;33.77;99834.59;106017;1257;70298;-77
2023/10/09 09:37:28;;;;;;;4.90;1.70;;;;;;;18.88;32.54;99833.37;106012;1252;71308;-76
2023/10/09 09:39:57;;;;;;;5.60;1.70;;;;;;;19.21;32.71;99834.54;106023;1255;59712;-78
2023/10/09 09:42:27;;;;;;;6.20;1.60;;;;;;;19.73;32.09;99828.63;106044;1251;59678;-76
2023/10/09 09:44:55;;;;;;;3.20;1.50;;;;;;;20.24;31.27;99823.79;106047;1257;73067;-77
2023/10/09 09:47:26;;;;;;;2.50;1.60;;;;;;;20.64;30.16;99820.96;106587;1256;69069;-76
2023/10/09 09:50:00;;;;;;;2.50;1.30;;;;;;;20.80;29.36;99824.59;106894;1251;72579;-76
2023/10/09 09:52:53;;;;;;;3.50;2.00;;;;;;;20.79;29.89;99820.56;109278;1251;59564;-76
2023/10/09 09:55:22;;;;;;;4.70;1.50;;;;;;;21.20;29.61;99818.34;107029;1251;59818;-78
2023/10/09 09:57:52;;;;;;;2.10;1.70;;;;;;;21.67;29.10;99820.13;105990;1257;72120;-77
2023/10/09 10:00:36;;;;;;;3.10;1.90;;;;;;;21.98;27.93;99820.08;106024;1251;70320;-77
2023/10/09 10:03:05;;;;;;;;;;;;;;;21.94;28.22;99814.70;105907;1256;72025;-76
2023/10/09 10:05:33;;;;;;;7.40;2.90;;;;;;;22.14;28.35;99814.85;105939;1256;61109;-77
2023/10/09 10:08:00;;;;;;;4.60;2.50;;;;;;;22.46;27.58;99815.55;106170;1257;59714;-76
2023/10/09 10:10:38;;;;;;;3.70;1.80;;;;;;;22.82;27.08;99812.02;105852;1257;72937;-78
2023/10/09 10:13:05;;;;;;;4.60;2.20;;;;;;;23.31;26.84;99810.43;105981;1256;68799;-78
2023/10/09 10:15:58;;;;;;;5.10;1.90;;;;;;;23.78;26.29;99809.67;105987;1257;71417;-77
2023/10/09 10:18:25;;;;;;;2.60;2.10;;;;;;;24.27;25.74;99805.48;106262;1255;59712;-77
2023/10/09 10:21:17;;;;;;;3.40;1.90;;;;;;;24.58;25.58;99801.65;107584;1252;60423;-74
2023/10/09 10:23:47;;;;;;;9.60;1.80;;;;;;;24.97;24.90;99811.08;108266;1251;72990;-77
2023/10/09 10:26:25;;;;;;;1.50;1.40;;;;;;;24.96;25.22;99806.50;106486;1256;68869;-77
2023/10/09 10:29:23;;;;;;;2.00;1.70;;;;;;;24.76;24.70;99805.60;105970;1251;72460;-77
2023/10/09 10:32:00;;;;;;;2.30;1.40;;;;;;;24.27;24.76;99802.02;105956;1256;60221;-78
2023/10/09 10:34:27;;;;;;;3.20;1.40;;;;;;;24.06;24.67;99800.39;105995;1258;61065;-77
2023/10/09 10:36:59;;;;;;;2.80;1.30;;;;;;;24.07;24.81;99794.49;105788;1258;73168;-77
2023/10/09 10:39:42;;;;;;;;;;;;;;;24.37;24.58;99795.48;105907;1258;70482;-76
2023/10/09 10:42:14;;;;;;;2.20;1.90;;;;;;;24.57;24.31;99796.16;105944;1256;71287;-77
2023/10/09 10:44:44;;;;;;;2.60;1.40;;;;;;;24.54;24.48;99796.30;105931;1256;60191;-76
2023/10/09 10:47:47;;;;;;;1.70;1.20;;;;;;;24.67;24.29;99792.06;106003;1251;60663;-77
2023/10/09 10:50:35;;;;;;;2.80;1.40;;;;;;;24.80;24.27;99784.38;105851;1258;73316;-77
2023/10/09 10:53:14;;;;;;;1.70;1.40;;;;;;;24.87;23.96;99784.93;105945;1251;70116;-77
2023/10/09 10:59:11;;;;;;;2.20;1.40;;;;;;;24.76;24.47;99776.80;106260;1251;60155;-78
2023/10/09 11:01:58;;;;;;;;;;;;;;;25.31;24.10;99770.52;105845;1254;59890;-77
2023/10/09 11:07:06;;;;;;;1.40;1.30;;;;;;;24.27;24.24;99775.30;105826;1251;70118;-76
2023/10/09 11:12:42;;;;;;;1.40;1.20;;;;;;;22.40;25.95;99770.31;106000;1251;60593;-76
2023/10/09 11:15:29;;;;;;;1.40;1.10;;;;;;;22.42;26.31;99770.67;106271;1251;60277;-77
2023/10/09 11:29:23;;;;;;;1.60;1.50;;;;;;;23.56;25.59;99763.85;105906;1256;61592;-76
2023/10/09 11:31:59;;;;;;;3.30;1.40;;;;;;;23.22;25.57;99767.98;105810;1257;73120;-77
2023/10/09 11:34:29;;;;;;;2.20;1.50;;;;;;;22.59;25.71;99775.52;106058;1255;70125;-77
2023/10/09 11:37:00;;;;;;;2.50;1.30;;;;;;;21.41;26.50;99768.73;105851;1251;71441;-76
2023/10/09 11:39:34;;;;;;;3.00;1.50;;;;;;;20.24;27.53;99765.69;105950;1257;60181;-76
2023/10/09 11:42:05;;;;;;;2.30;1.20;;;;;;;19.54;28.45;99763.44;105973;1251;60239;-77
2023/10/09 11:44:39;;;;;;;1.40;1.30;;;;;;;19.21;29.09;99764.64;105883;1251;71792;-77
2023/10/09 11:52:35;;;;;;;4.10;1.10;;;;;;;18.35;30.18;99777.36;106019;1255;59807;-78
2023/10/09 11:55:03;;;;;;;3.20;1.10;;;;;;;17.94;30.53;99777.15;106070;1256;59564;-79
2023/10/09 11:57:36;;;;;;;4.00;1.30;;;;;;;17.64;30.85;99779.84;105994;1255;73103;-78
2023/10/09 12:03:04;;;;;;;1.40;1.20;;;;;;;17.28;31.48;99775.69;106063;1255;72490;-78
2023/10/09 12:05:33;;;;;;;1.30;1.20;;;;;;;17.27;31.77;99776.88;107423;1251;60519;-76
2023/10/09 12:08:07;;;;;;;3.00;1.40;;;;;;;17.35;31.76;99779.75;107519;1257;59589;-77
2023/10/09 12:10:38;;;;;;;3.20;1.40;;;;;;;17.33;31.73;99780.42;107376;1252;71505;-78
2023/10/09 12:13:06;;;;;;;2.00;1.00;;;;;;;17.42;31.79;99777.42;106103;1256;70050;-77
2023/10/09 12:15:37;;;;;;;2.10;1.10;;;;;;;17.62;31.69;99781.02;106191;1265;71431;-78
2023/10/09 12:18:08;;;;;;;1.40;1.20;;;;;;;17.69;31.48;99779.58;106631;1254;60091;-76
2023/10/09 12:20:39;;;;;;;2.00;1.30;;;;;;;17.58;31.51;99783.30;107937;1251;60107;-77
2023/10/09 12:23:06;;;;;;;1.80;1.40;;;;;;;17.22;31.87;99778.46;107877;1256;71893;-78
2023/10/09 12:25:35;;;;;;;1.80;1.40;;;;;;;16.92;32.09;99780.63;106225;1251;70412;-79
2023/10/09 12:28:03;;;;;;;2.10;1.30;;;;;;;16.62;32.04;99778.35;106283;1251;72531;-79
2023/10/09 12:30:30;;;;;;;2.90;1.70;;;;;;;16.20;32.54;99778.20;106148;1254;59804;-80
2023/10/09 12:32:57;;;;;;;2.60;1.30;;;;;;;16.00;32.90;99778.36;106207;1257;60404;-80
2023/10/09 12:35:25;;;;;;;1.80;1.50;;;;;;;15.81;33.06;99779.27;106335;1255;73931;-79
2023/10/09 12:37:56;;;;;;;1.60;1.20;;;;;;;15.69;33.68;99770.34;106344;1251;69938;-79
2023/10/09 12:40:30;;;;;;;2.20;1.50;;;;;;;15.73;33.70;99769.13;106185;1257;71132;-79
2023/10/09 12:42:59;;;;;;;3.60;1.10;;;;;;;15.78;33.40;99764.13;106293;1254;59749;-79
2023/10/09 12:45:26;;;;;;;2.10;1.30;;;;;;;15.65;33.45;99759.69;106381;1256;59646;-80
2023/10/09 12:47:58;;;;;;;1.30;1.20;;;;;;;15.37;33.69;99760.69;106190;1256;71848;-79
2023/10/09 12:50:28;;;;;;;3.90;1.10;;;;;;;15.07;33.94;99758.50;106395;1251;69006;-79
2023/10/09 12:53:01;;;;;;;1.90;1.00;;;;;;;14.76;34.13;99757.61;106392;1251;71994;-80
2023/10/09 12:55:32;;;;;;;1.90;1.10;;;;;;;14.46;34.36;99760.52;106263;1251;60466;-79
2023/10/09 12:58:01;;;;;;;1.10;0.90;;;;;;;14.22;34.68;99758.46;106215;1257;60490;-78
2023/10/09 13:00:32;;;;;;;1.80;1.30;;;;;;;14.01;34.97;99758.27;106311;1256;74576;-79
2023/10/09 13:03:02;;;;;;;1.70;1.00;;;;;;;13.80;35.37;99759.06;106255;1251;68814;-78
2023/10/09 13:05:29;;;;;;;5.10;1.50;;;;;;;13.61;35.73;99764.75;106151;1254;72411;-78
2023/10/09 13:07:56;;;;;;;2.90;1.40;;;;;;;13.43;35.97;99761.94;106162;1251;60544;-79
2023/10/09 13:10:31;;;;;;;3.10;1.50;;;;;;;13.25;36.15;99759.40;106199;1256;60616;-78
2023/10/09 13:13:05;;;;;;;4.30;1.90;;;;;;;13.11;36.59;99756.30;106358;1256;73931;-78
2023/10/09 13:15:42;;;;;;;4.80;1.40;;;;;;;13.02;36.89;99764.53;106255;1256;68942;-78
2023/10/09 13:18:09;;;;;;;2.50;1.40;;;;;;;12.89;37.10;99761.77;107618;1251;72486;-78
2023/10/09 13:20:36;;;;;;;4.10;1.70;;;;;;;12.74;37.26;99761.60;108538;1251;59235;-78
2023/10/09 13:23:02;;;;;;;3.40;1.50;;;;;;;12.61;37.49;99763.23;107584;1251;60746;-77
2023/10/09 13:25:39;;;;;;;1.60;1.30;;;;;;;12.51;37.87;99763.39;106162;1256;74489;-78
2023/10/09 13:28:06;;;;;;;3.70;1.50;;;;;;;12.42;38.29;99768.87;106212;1251;70301;-79
2023/10/09 13:30:39;;;;;;;2.20;1.50;;;;;;;12.31;38.45;99764.02;105945;1253;73263;-78
2023/10/09 13:33:05;;;;;;;4.10;1.40;;;;;;;12.23;38.86;99760.33;105902;1257;60809;-79
2023/10/09 13:35:44;;;;;;;4.00;1.20;;;;;;;12.15;39.15;99759.05;105946;1251;60581;-78
2023/10/09 13:38:10;;;;;;;3.70;1.40;;;;;;;12.05;39.21;99763.89;106104;1256;73850;-79
2023/10/09 13:40:37;;;;;;;2.90;1.60;;;;;;;11.97;39.35;99763.08;106117;1251;70260;-77
2023/10/09 13:43:05;;;;;;;1.60;1.30;;;;;;;11.85;39.39;99762.13;106192;1257;72476;-79
2023/10/09 13:45:38;;;;;;;3.20;1.70;;;;;;;11.75;39.52;99765.35;106045;1253;60639;-77
2023/10/09 13:48:05;;;;;;;3.30;1.60;;;;;;;11.66;39.64;99763.18;106119;1252;60443;-80
2023/10/09 13:50:33;;;;;;;6.50;1.70;;;;;;;11.56;40.06;99761.19;106034;1256;72397;-79
2023/10/09 13:53:00;;;;;;;8.20;1.80;;;;;;;11.45;40.30;99756.91;105977;1256;70378;-78
2023/10/09 13:55:31;;;;;;;3.30;1.30;;;;;;;11.36;40.21;99756.08;105928;1253;72647;-77
2023/10/09 13:57:58;;;;;;;4.60;1.50;;;;;;;11.25;40.27;99758.96;106074;1253;60469;-78
2023/10/09 14:00:34;;;;;;;4.30;1.60;;;;;;;11.19;40.56;99758.52;106140;1251;60358;-77
2023/10/09 14:03:03;;;;;;;2.10;1.20;;;;;;;11.18;41.02;99756.92;105846;1254;72405;-79
2023/10/09 14:05:30;;;;;;;4.30;1.70;;;;;;;11.11;41.02;99759.47;105903;1251;71772;-79
2023/10/09 14:08:00;;;;;;;3.00;1.50;;;;;;;11.03;41.14;99762.29;106021;1256;71700;-79
2023/10/09 14:10:30;;;;;;;2.60;1.20;;;;;;;10.95;41.24;99757.98;106563;1251;60520;-79
2023/10/09 14:12:57;;;;;;;3.00;1.60;;;;;;;10.91;41.42;99753.30;106573;1251;60419;-79
2023/10/09 14:15:26;;;;;;;3.40;1.80;;;;;;;10.86;41.59;99758.38;107044;1253;72734;-79
2023/10/09 14:17:55;;;;;;;5.30;1.50;;;;;;;10.76;42.47;99761.34;109159;1251;69044;-79
2023/10/09 14:20:31;;;;;;;2.60;1.40;;;;;;;10.65;42.13;99761.67;109347;1251;71369;-80
2023/10/09 14:23:06;;;;;;;5.40;1.60;;;;;;;10.59;42.40;99766.05;107215;1256;60445;-80
2023/10/09 14:25:37;;;;;;;5.30;1.60;;;;;;;10.53;42.55;99765.66;106441;1251;60374;-79
2023/10/09 14:28:09;;;;;;;2.50;1.20;;;;;;;10.47;42.58;99768.22;106174;1252;73997;-79
2023/10/09 14:30:42;;;;;;;3.40;1.80;;;;;;;10.45;42.67;99767.06;106020;1251;70118;-80
2023/10/09 14:33:12;;;;;;;3.10;1.60;;;;;;;10.45;42.72;99772.77;106003;1256;73917;-79
2023/10/09 14:35:40;;;;;;;3.50;1.00;;;;;;;10.42;42.83;99773.30;105981;1251;62193;-80
2023/10/09 14:38:12;;;;;;;3.20;1.60;;;;;;;10.39;42.94;99779.75;105849;1251;60643;-81
2023/10/09 14:40:43;;;;;;;3.90;1.70;;;;;;;10.35;43.24;99780.73;105959;1251;74005;-80